sensor_id;sensor_type;location;lat;lon;timestamp;temperature;humidity
39067;DHT22;24821;51.988;6.020;2023-04-24T00:02:07;10.80;99.90
39067;DHT22;24821;51.988;6.020;2023-04-24T00:04:36;10.90;99.90
39067;DHT22;24821;51.988;6.020;2023-04-24T00:07:05;10.90;99.90
39067;DHT22;24821;51.988;6.020;2023-04-24T00:09:32;10.90;99.90
39067;DHT22;24821;51.988;6.020;2023-04-24T00:11:58;10.90;99.90
39067;DHT22;24821;51.988;6.020;2023-04-24T00:14:23;10.90;99.90
39067;DHT22;24821;51.988;6.020;2023-04-24T00:16:49;10.90;99.90
39067;DHT22;24821;51.988;6.020;2023-04-24T00:19:15;10.90;99.90
39067;DHT22;24821;51.988;6.020;2023-04-24T00:21:41;10.90;99.90
39067;DHT22;24821;51.988;6.020;2023-04-24T00:24:07;10.90;99.90
39067;DHT22;24821;51.988;6.020;2023-04-24T00:26:34;10.90;99.90
39067;DHT22;24821;51.988;6.020;2023-04-24T00:29:00;10.90;99.90
39067;DHT22;24821;51.988;6.020;2023-04-24T00:31:25;10.90;99.90
39067;DHT22;24821;51.988;6.020;2023-04-24T00:33:51;10.80;99.90
39067;DHT22;24821;51.988;6.020;2023-04-24T00:36:16;10.90;99.90
39067;DHT22;24821;51.988;6.020;2023-04-24T00:38:44;10.90;99.90
39067;DHT22;24821;51.988;6.020;2023-04-24T00:41:10;10.80;99.90
39067;DHT22;24821;51.988;6.020;2023-04-24T00:43:35;10.80;99.90
39067;DHT22;24821;51.988;6.020;2023-04-24T00:46:01;10.80;99.90
39067;DHT22;24821;51.988;6.020;2023-04-24T00:48:27;10.80;99.90
39067;DHT22;24821;51.988;6.020;2023-04-24T00:50:53;10.80;99.90
39067;DHT22;24821;51.988;6.020;2023-04-24T00:53:19;10.80;99.90
39067;DHT22;24821;51.988;6.020;2023-04-24T00:55:45;10.90;99.90
39067;DHT22;24821;51.988;6.020;2023-04-24T00:58:11;10.90;99.90
39067;DHT22;24821;51.988;6.020;2023-04-24T01:00:36;10.90;99.90
39067;DHT22;24821;51.988;6.020;2023-04-24T01:03:04;10.90;99.90
39067;DHT22;24821;51.988;6.020;2023-04-24T01:05:30;10.90;99.90
39067;DHT22;24821;51.988;6.020;2023-04-24T01:07:56;10.90;99.90
39067;DHT22;24821;51.988;6.020;2023-04-24T01:10:22;10.90;99.90
39067;DHT22;24821;51.988;6.020;2023-04-24T01:12:49;11.00;99.90
39067;DHT22;24821;51.988;6.020;2023-04-24T01:15:15;10.90;99.90
39067;DHT22;24821;51.988;6.020;2023-04-24T01:17:40;11.00;99.90
39067;DHT22;24821;51.988;6.020;2023-04-24T01:20:06;11.00;99.90
39067;DHT22;24821;51.988;6.020;2023-04-24T01:22:35;10.90;99.90
39067;DHT22;24821;51.988;6.020;2023-04-24T01:25:02;10.90;99.90
39067;DHT22;24821;51.988;6.020;2023-04-24T01:27:28;10.90;99.90
39067;DHT22;24821;51.988;6.020;2023-04-24T01:29:53;10.90;99.90
39067;DHT22;24821;51.988;6.020;2023-04-24T01:32:19;10.90;99.90
39067;DHT22;24821;51.988;6.020;2023-04-24T01:34:46;10.90;99.90
39067;DHT22;24821;51.988;6.020;2023-04-24T01:37:12;10.90;99.90
39067;DHT22;24821;51.988;6.020;2023-04-24T01:39:37;10.90;99.90
39067;DHT22;24821;51.988;6.020;2023-04-24T01:42:04;10.90;99.90
39067;DHT22;24821;51.988;6.020;2023-04-24T01:44:30;10.90;99.90
39067;DHT22;24821;51.988;6.020;2023-04-24T01:46:56;10.80;99.90
39067;DHT22;24821;51.988;6.020;2023-04-24T01:49:22;10.90;99.90
39067;DHT22;24821;51.988;6.020;2023-04-24T01:51:48;10.90;99.90
39067;DHT22;24821;51.988;6.020;2023-04-24T01:54:13;10.90;99.90
39067;DHT22;24821;51.988;6.020;2023-04-24T01:56:43;10.80;99.90
39067;DHT22;24821;51.988;6.020;2023-04-24T01:59:12;10.80;99.90
39067;DHT22;24821;51.988;6.020;2023-04-24T02:01:38;10.80;99.90
39067;DHT22;24821;51.988;6.020;2023-04-24T02:04:05;10.80;99.90
39067;DHT22;24821;51.988;6.020;2023-04-24T02:06:31;10.80;99.90
39067;DHT22;24821;51.988;6.020;2023-04-24T02:08:58;10.80;99.90
39067;DHT22;24821;51.988;6.020;2023-04-24T02:11:24;10.80;99.90
39067;DHT22;24821;51.988;6.020;2023-04-24T02:13:50;10.80;99.90
39067;DHT22;24821;51.988;6.020;2023-04-24T02:16:17;10.80;99.90
39067;DHT22;24821;51.988;6.020;2023-04-24T02:18:43;10.80;99.90
39067;DHT22;24821;51.988;6.020;2023-04-24T02:21:08;10.80;99.90
39067;DHT22;24821;51.988;6.020;2023-04-24T02:23:34;10.90;99.90
39067;DHT22;24821;51.988;6.020;2023-04-24T02:26:00;10.80;99.90
39067;DHT22;24821;51.988;6.020;2023-04-24T02:28:25;10.80;99.90
39067;DHT22;24821;51.988;6.020;2023-04-24T02:30:54;10.80;99.90
39067;DHT22;24821;51.988;6.020;2023-04-24T02:33:19;10.80;99.90
39067;DHT22;24821;51.988;6.020;2023-04-24T02:35:45;10.80;99.90
39067;DHT22;24821;51.988;6.020;2023-04-24T02:38:10;10.80;99.90
39067;DHT22;24821;51.988;6.020;2023-04-24T02:40:36;10.80;99.90
39067;DHT22;24821;51.988;6.020;2023-04-24T02:43:02;10.80;99.90
39067;DHT22;24821;51.988;6.020;2023-04-24T02:45:27;10.80;99.90
39067;DHT22;24821;51.988;6.020;2023-04-24T02:47:53;10.80;99.90
39067;DHT22;24821;51.988;6.020;2023-04-24T02:50:18;10.70;99.90
39067;DHT22;24821;51.988;6.020;2023-04-24T02:52:44;10.70;99.90
39067;DHT22;24821;51.988;6.020;2023-04-24T02:55:10;10.70;99.90
39067;DHT22;24821;51.988;6.020;2023-04-24T02:57:35;10.70;99.90
39067;DHT22;24821;51.988;6.020;2023-04-24T03:00:01;10.70;99.90
39067;DHT22;24821;51.988;6.020;2023-04-24T03:02:26;10.70;99.90
39067;DHT22;24821;51.988;6.020;2023-04-24T03:04:52;10.70;99.90
39067;DHT22;24821;51.988;6.020;2023-04-24T03:07:18;10.70;99.90
39067;DHT22;24821;51.988;6.020;2023-04-24T03:09:46;10.60;99.90
39067;DHT22;24821;51.988;6.020;2023-04-24T03:12:12;10.60;99.90
39067;DHT22;24821;51.988;6.020;2023-04-24T03:14:37;10.60;99.90
39067;DHT22;24821;51.988;6.020;2023-04-24T03:17:03;10.60;99.90
39067;DHT22;24821;51.988;6.020;2023-04-24T03:19:28;10.70;99.90
39067;DHT22;24821;51.988;6.020;2023-04-24T03:21:54;10.60;99.90
39067;DHT22;24821;51.988;6.020;2023-04-24T03:24:20;10.60;99.90
39067;DHT22;24821;51.988;6.020;2023-04-24T03:26:46;10.60;99.90
39067;DHT22;24821;51.988;6.020;2023-04-24T03:29:11;10.60;99.90
39067;DHT22;24821;51.988;6.020;2023-04-24T03:31:37;10.60;99.90
39067;DHT22;24821;51.988;6.020;2023-04-24T03:34:02;10.60;99.90
39067;DHT22;24821;51.988;6.020;2023-04-24T03:36:28;10.60;99.90
39067;DHT22;24821;51.988;6.020;2023-04-24T03:38:53;10.60;99.90
39067;DHT22;24821;51.988;6.020;2023-04-24T03:41:19;10.60;99.90
39067;DHT22;24821;51.988;6.020;2023-04-24T03:43:44;10.50;99.90
39067;DHT22;24821;51.988;6.020;2023-04-24T03:46:10;10.50;99.90
39067;DHT22;24821;51.988;6.020;2023-04-24T03:48:35;10.50;99.90
39067;DHT22;24821;51.988;6.020;2023-04-24T03:51:01;10.50;99.90
39067;DHT22;24821;51.988;6.020;2023-04-24T03:53:27;10.40;99.90
39067;DHT22;24821;51.988;6.020;2023-04-24T03:55:53;10.40;99.90
39067;DHT22;24821;51.988;6.020;2023-04-24T03:58:18;10.40;99.90
39067;DHT22;24821;51.988;6.020;2023-04-24T04:00:44;10.40;99.90
39067;DHT22;24821;51.988;6.020;2023-04-24T04:03:11;10.40;99.90
39067;DHT22;24821;51.988;6.020;2023-04-24T04:05:38;10.40;99.90
39067;DHT22;24821;51.988;6.020;2023-04-24T04:08:04;10.40;99.90
39067;DHT22;24821;51.988;6.020;2023-04-24T04:10:29;10.30;99.90
39067;DHT22;24821;51.988;6.020;2023-04-24T04:12:55;10.30;99.90
39067;DHT22;24821;51.988;6.020;2023-04-24T04:15:20;10.40;99.90
39067;DHT22;24821;51.988;6.020;2023-04-24T04:17:46;10.40;99.90
39067;DHT22;24821;51.988;6.020;2023-04-24T04:20:12;10.40;99.90
39067;DHT22;24821;51.988;6.020;2023-04-24T04:22:37;10.30;99.90
39067;DHT22;24821;51.988;6.020;2023-04-24T04:25:03;10.30;99.90
39067;DHT22;24821;51.988;6.020;2023-04-24T04:27:30;10.30;99.90
39067;DHT22;24821;51.988;6.020;2023-04-24T04:29:58;10.30;99.90
39067;DHT22;24821;51.988;6.020;2023-04-24T04:32:26;10.20;99.90
39067;DHT22;24821;51.988;6.020;2023-04-24T04:34:52;10.20;99.90
39067;DHT22;24821;51.988;6.020;2023-04-24T04:37:18;10.20;99.90
39067;DHT22;24821;51.988;6.020;2023-04-24T04:39:44;10.20;99.90
39067;DHT22;24821;51.988;6.020;2023-04-24T04:42:10;10.20;99.90
39067;DHT22;24821;51.988;6.020;2023-04-24T04:44:35;10.20;99.90
39067;DHT22;24821;51.988;6.020;2023-04-24T04:47:01;10.20;99.90
39067;DHT22;24821;51.988;6.020;2023-04-24T04:49:31;10.20;99.90
39067;DHT22;24821;51.988;6.020;2023-04-24T04:51:56;10.20;99.90
39067;DHT22;24821;51.988;6.020;2023-04-24T04:54:22;10.20;99.90
39067;DHT22;24821;51.988;6.020;2023-04-24T04:56:50;10.20;99.90
39067;DHT22;24821;51.988;6.020;2023-04-24T04:59:15;10.20;99.90
39067;DHT22;24821;51.988;6.020;2023-04-24T05:01:41;10.20;99.90
39067;DHT22;24821;51.988;6.020;2023-04-24T05:04:07;10.20;99.90
39067;DHT22;24821;51.988;6.020;2023-04-24T05:06:32;10.20;99.90
39067;DHT22;24821;51.988;6.020;2023-04-24T05:08:58;10.10;99.90
39067;DHT22;24821;51.988;6.020;2023-04-24T05:11:23;10.10;99.90
39067;DHT22;24821;51.988;6.020;2023-04-24T05:13:50;10.10;99.90
39067;DHT22;24821;51.988;6.020;2023-04-24T05:16:15;10.10;99.90
39067;DHT22;24821;51.988;6.020;2023-04-24T05:18:41;10.00;99.90
39067;DHT22;24821;51.988;6.020;2023-04-24T05:21:06;10.10;99.90
39067;DHT22;24821;51.988;6.020;2023-04-24T05:23:32;10.00;99.90
39067;DHT22;24821;51.988;6.020;2023-04-24T05:25:57;10.00;99.90
39067;DHT22;24821;51.988;6.020;2023-04-24T05:28:23;10.00;99.90
39067;DHT22;24821;51.988;6.020;2023-04-24T05:30:48;10.00;99.90
39067;DHT22;24821;51.988;6.020;2023-04-24T05:33:14;10.00;99.90
39067;DHT22;24821;51.988;6.020;2023-04-24T05:35:42;10.00;99.90
39067;DHT22;24821;51.988;6.020;2023-04-24T05:38:12;10.00;99.90
39067;DHT22;24821;51.988;6.020;2023-04-24T05:40:38;9.90;99.90
39067;DHT22;24821;51.988;6.020;2023-04-24T05:43:04;9.90;99.90
39067;DHT22;24821;51.988;6.020;2023-04-24T05:45:29;10.00;99.90
39067;DHT22;24821;51.988;6.020;2023-04-24T05:47:55;10.10;99.90
39067;DHT22;24821;51.988;6.020;2023-04-24T05:50:21;10.10;99.90
39067;DHT22;24821;51.988;6.020;2023-04-24T05:52:46;10.10;99.90
39067;DHT22;24821;51.988;6.020;2023-04-24T05:55:12;10.10;99.90
39067;DHT22;24821;51.988;6.020;2023-04-24T05:57:38;10.20;99.90
39067;DHT22;24821;51.988;6.020;2023-04-24T06:00:04;10.30;99.90
39067;DHT22;24821;51.988;6.020;2023-04-24T06:02:30;10.30;99.90
39067;DHT22;24821;51.988;6.020;2023-04-24T06:04:58;10.40;99.90
39067;DHT22;24821;51.988;6.020;2023-04-24T06:07:25;10.50;99.90
39067;DHT22;24821;51.988;6.020;2023-04-24T06:09:51;10.60;99.90
39067;DHT22;24821;51.988;6.020;2023-04-24T06:12:17;10.60;99.90
39067;DHT22;24821;51.988;6.020;2023-04-24T06:14:43;10.70;99.90
39067;DHT22;24821;51.988;6.020;2023-04-24T06:17:09;10.70;99.90
39067;DHT22;24821;51.988;6.020;2023-04-24T06:19:34;10.70;99.90
39067;DHT22;24821;51.988;6.020;2023-04-24T06:22:00;10.70;99.90
39067;DHT22;24821;51.988;6.020;2023-04-24T06:24:29;10.70;99.90
39067;DHT22;24821;51.988;6.020;2023-04-24T06:26:54;10.80;99.90
39067;DHT22;24821;51.988;6.020;2023-04-24T06:29:20;10.80;99.90
39067;DHT22;24821;51.988;6.020;2023-04-24T06:31:45;10.80;99.90
39067;DHT22;24821;51.988;6.020;2023-04-24T06:34:11;10.80;99.90
39067;DHT22;24821;51.988;6.020;2023-04-24T06:36:36;10.80;99.90
39067;DHT22;24821;51.988;6.020;2023-04-24T06:39:02;10.90;99.90
39067;DHT22;24821;51.988;6.020;2023-04-24T06:41:28;10.90;99.90
39067;DHT22;24821;51.988;6.020;2023-04-24T06:43:54;10.90;99.90
39067;DHT22;24821;51.988;6.020;2023-04-24T06:46:20;10.90;99.90
39067;DHT22;24821;51.988;6.020;2023-04-24T06:48:49;10.90;99.90
39067;DHT22;24821;51.988;6.020;2023-04-24T06:51:14;11.00;99.90
39067;DHT22;24821;51.988;6.020;2023-04-24T06:53:40;11.00;99.90
39067;DHT22;24821;51.988;6.020;2023-04-24T06:56:06;11.00;99.90
39067;DHT22;24821;51.988;6.020;2023-04-24T06:58:31;11.00;99.90
39067;DHT22;24821;51.988;6.020;2023-04-24T07:00:57;11.20;99.90
39067;DHT22;24821;51.988;6.020;2023-04-24T07:03:23;11.20;99.90
39067;DHT22;24821;51.988;6.020;2023-04-24T07:05:48;11.20;99.90
39067;DHT22;24821;51.988;6.020;2023-04-24T07:08:14;11.20;99.90
39067;DHT22;24821;51.988;6.020;2023-04-24T07:10:43;11.20;99.90
39067;DHT22;24821;51.988;6.020;2023-04-24T07:13:09;11.30;99.90
39067;DHT22;24821;51.988;6.020;2023-04-24T07:15:34;11.30;99.90
39067;DHT22;24821;51.988;6.020;2023-04-24T07:18:00;11.50;99.90
39067;DHT22;24821;51.988;6.020;2023-04-24T07:20:26;11.50;99.90
39067;DHT22;24821;51.988;6.020;2023-04-24T07:22:51;11.50;99.90
39067;DHT22;24821;51.988;6.020;2023-04-24T07:25:19;11.60;99.90
39067;DHT22;24821;51.988;6.020;2023-04-24T07:27:44;11.60;99.90
39067;DHT22;24821;51.988;6.020;2023-04-24T07:30:10;11.60;99.90
39067;DHT22;24821;51.988;6.020;2023-04-24T07:32:36;11.50;99.90
39067;DHT22;24821;51.988;6.020;2023-04-24T07:35:02;11.50;99.90
39067;DHT22;24821;51.988;6.020;2023-04-24T07:37:28;11.50;99.90
39067;DHT22;24821;51.988;6.020;2023-04-24T07:39:54;11.50;99.90
39067;DHT22;24821;51.988;6.020;2023-04-24T07:42:19;11.40;99.90
39067;DHT22;24821;51.988;6.020;2023-04-24T07:44:45;11.40;99.90
39067;DHT22;24821;51.988;6.020;2023-04-24T07:47:12;11.30;99.90
39067;DHT22;24821;51.988;6.020;2023-04-24T07:49:41;11.20;99.90
39067;DHT22;24821;51.988;6.020;2023-04-24T07:52:06;11.20;99.90
39067;DHT22;24821;51.988;6.020;2023-04-24T07:54:32;11.20;99.90
39067;DHT22;24821;51.988;6.020;2023-04-24T07:56:58;11.10;99.90
39067;DHT22;24821;51.988;6.020;2023-04-24T07:59:23;11.10;99.90
39067;DHT22;24821;51.988;6.020;2023-04-24T08:01:49;11.10;99.90
39067;DHT22;24821;51.988;6.020;2023-04-24T08:04:14;11.00;99.90
39067;DHT22;24821;51.988;6.020;2023-04-24T08:06:40;11.00;99.90
39067;DHT22;24821;51.988;6.020;2023-04-24T08:09:05;10.90;99.90
39067;DHT22;24821;51.988;6.020;2023-04-24T08:11:31;10.90;99.90
39067;DHT22;24821;51.988;6.020;2023-04-24T08:13:58;10.80;99.90
39067;DHT22;24821;51.988;6.020;2023-04-24T08:16:23;10.80;99.90
39067;DHT22;24821;51.988;6.020;2023-04-24T08:18:49;10.80;99.90
39067;DHT22;24821;51.988;6.020;2023-04-24T08:21:15;10.70;99.90
39067;DHT22;24821;51.988;6.020;2023-04-24T08:23:44;10.70;99.90
39067;DHT22;24821;51.988;6.020;2023-04-24T08:26:10;10.60;99.90
39067;DHT22;24821;51.988;6.020;2023-04-24T08:28:36;10.60;99.90
39067;DHT22;24821;51.988;6.020;2023-04-24T08:31:02;10.60;99.90
39067;DHT22;24821;51.988;6.020;2023-04-24T08:33:28;10.60;99.90
39067;DHT22;24821;51.988;6.020;2023-04-24T08:36:00;10.60;99.90
39067;DHT22;24821;51.988;6.020;2023-04-24T08:38:26;10.50;99.90
39067;DHT22;24821;51.988;6.020;2023-04-24T08:40:51;10.50;99.90
39067;DHT22;24821;51.988;6.020;2023-04-24T08:43:17;10.50;99.90
39067;DHT22;24821;51.988;6.020;2023-04-24T08:45:43;10.50;99.90
39067;DHT22;24821;51.988;6.020;2023-04-24T08:48:09;10.50;99.90
39067;DHT22;24821;51.988;6.020;2023-04-24T08:50:35;10.60;99.90
39067;DHT22;24821;51.988;6.020;2023-04-24T08:53:02;10.60;99.90
39067;DHT22;24821;51.988;6.020;2023-04-24T08:55:29;10.60;99.90
39067;DHT22;24821;51.988;6.020;2023-04-24T08:57:55;10.60;99.90
39067;DHT22;24821;51.988;6.020;2023-04-24T09:00:21;10.70;99.90
39067;DHT22;24821;51.988;6.020;2023-04-24T09:02:49;10.70;99.90
39067;DHT22;24821;51.988;6.020;2023-04-24T09:05:17;10.70;99.90
39067;DHT22;24821;51.988;6.020;2023-04-24T09:07:46;10.70;99.90
39067;DHT22;24821;51.988;6.020;2023-04-24T09:10:21;10.70;99.90
39067;DHT22;24821;51.988;6.020;2023-04-24T09:12:56;10.70;99.90
39067;DHT22;24821;51.988;6.020;2023-04-24T09:15:24;10.80;99.90
39067;DHT22;24821;51.988;6.020;2023-04-24T09:18:05;10.70;99.90
39067;DHT22;24821;51.988;6.020;2023-04-24T09:20:31;10.80;99.90
39067;DHT22;24821;51.988;6.020;2023-04-24T09:22:57;10.80;99.90
39067;DHT22;24821;51.988;6.020;2023-04-24T09:25:34;10.70;99.90
39067;DHT22;24821;51.988;6.020;2023-04-24T09:28:04;10.70;99.90
39067;DHT22;24821;51.988;6.020;2023-04-24T09:30:31;10.70;99.90
39067;DHT22;24821;51.988;6.020;2023-04-24T09:35:35;10.80;99.90
39067;DHT22;24821;51.988;6.020;2023-04-24T09:38:01;10.80;99.90
39067;DHT22;24821;51.988;6.020;2023-04-24T09:40:26;10.80;99.90
39067;DHT22;24821;51.988;6.020;2023-04-24T09:42:54;10.80;99.90
39067;DHT22;24821;51.988;6.020;2023-04-24T09:45:21;10.80;99.90
39067;DHT22;24821;51.988;6.020;2023-04-24T09:47:51;10.90;99.90
39067;DHT22;24821;51.988;6.020;2023-04-24T09:50:19;11.00;99.90
39067;DHT22;24821;51.988;6.020;2023-04-24T09:52:46;11.10;99.90
39067;DHT22;24821;51.988;6.020;2023-04-24T09:55:21;11.10;99.90
39067;DHT22;24821;51.988;6.020;2023-04-24T09:57:49;11.20;99.90
39067;DHT22;24821;51.988;6.020;2023-04-24T10:00:33;11.30;99.90
39067;DHT22;24821;51.988;6.020;2023-04-24T10:03:06;11.40;99.90
39067;DHT22;24821;51.988;6.020;2023-04-24T10:05:33;11.40;99.90
39067;DHT22;24821;51.988;6.020;2023-04-24T10:08:04;11.50;99.90
39067;DHT22;24821;51.988;6.020;2023-04-24T10:10:41;11.60;99.90
39067;DHT22;24821;51.988;6.020;2023-04-24T10:13:08;11.80;99.90
39067;DHT22;24821;51.988;6.020;2023-04-24T10:15:34;11.80;99.90
39067;DHT22;24821;51.988;6.020;2023-04-24T10:18:00;11.90;99.90
39067;DHT22;24821;51.988;6.020;2023-04-24T10:20:29;12.10;99.90
39067;DHT22;24821;51.988;6.020;2023-04-24T10:22:56;12.20;99.90
39067;DHT22;24821;51.988;6.020;2023-04-24T10:25:28;12.40;99.90
39067;DHT22;24821;51.988;6.020;2023-04-24T10:27:58;12.50;99.90
39067;DHT22;24821;51.988;6.020;2023-04-24T10:30:35;12.70;99.90
39067;DHT22;24821;51.988;6.020;2023-04-24T10:33:14;12.80;99.90
39067;DHT22;24821;51.988;6.020;2023-04-24T10:35:47;13.00;99.90
39067;DHT22;24821;51.988;6.020;2023-04-24T10:38:15;13.20;99.90
39067;DHT22;24821;51.988;6.020;2023-04-24T10:40:44;13.20;99.90
39067;DHT22;24821;51.988;6.020;2023-04-24T10:43:10;13.20;99.90
39067;DHT22;24821;51.988;6.020;2023-04-24T10:45:37;13.10;99.90
39067;DHT22;24821;51.988;6.020;2023-04-24T10:48:08;12.90;99.90
39067;DHT22;24821;51.988;6.020;2023-04-24T10:53:14;12.50;99.90
39067;DHT22;24821;51.988;6.020;2023-04-24T10:55:45;12.30;99.90
39067;DHT22;24821;51.988;6.020;2023-04-24T10:58:14;12.20;99.90
39067;DHT22;24821;51.988;6.020;2023-04-24T11:00:42;12.10;99.90
39067;DHT22;24821;51.988;6.020;2023-04-24T11:03:32;12.00;99.90
39067;DHT22;24821;51.988;6.020;2023-04-24T11:06:06;12.00;99.90
39067;DHT22;24821;51.988;6.020;2023-04-24T11:08:45;11.90;99.90
39067;DHT22;24821;51.988;6.020;2023-04-24T11:11:16;12.00;99.90
39067;DHT22;24821;51.988;6.020;2023-04-24T11:16:27;12.20;99.90
39067;DHT22;24821;51.988;6.020;2023-04-24T11:19:36;12.30;99.90
39067;DHT22;24821;51.988;6.020;2023-04-24T11:22:05;12.40;99.90
39067;DHT22;24821;51.988;6.020;2023-04-24T11:24:48;12.40;99.90
39067;DHT22;24821;51.988;6.020;2023-04-24T11:27:19;12.10;99.90
39067;DHT22;24821;51.988;6.020;2023-04-24T11:34:58;12.00;99.90
39067;DHT22;24821;51.988;6.020;2023-04-24T11:37:27;12.20;99.90
39067;DHT22;24821;51.988;6.020;2023-04-24T11:39:54;12.40;99.90
39067;DHT22;24821;51.988;6.020;2023-04-24T11:42:22;12.50;99.90
39067;DHT22;24821;51.988;6.020;2023-04-24T11:44:49;12.60;99.90
39067;DHT22;24821;51.988;6.020;2023-04-24T11:47:16;12.60;99.90
39067;DHT22;24821;51.988;6.020;2023-04-24T11:49:42;12.60;99.90
39067;DHT22;24821;51.988;6.020;2023-04-24T11:52:08;12.50;99.90
39067;DHT22;24821;51.988;6.020;2023-04-24T11:54:33;12.50;99.90
39067;DHT22;24821;51.988;6.020;2023-04-24T11:56:59;12.50;99.90
39067;DHT22;24821;51.988;6.020;2023-04-24T11:59:28;12.60;99.90
39067;DHT22;24821;51.988;6.020;2023-04-24T12:01:54;12.60;99.90
39067;DHT22;24821;51.988;6.020;2023-04-24T12:04:20;12.50;99.90
39067;DHT22;24821;51.988;6.020;2023-04-24T12:07:02;12.40;99.90
39067;DHT22;24821;51.988;6.020;2023-04-24T12:09:28;12.30;99.90
39067;DHT22;24821;51.988;6.020;2023-04-24T12:11:56;12.20;99.90
39067;DHT22;24821;51.988;6.020;2023-04-24T12:14:23;12.10;99.90
39067;DHT22;24821;51.988;6.020;2023-04-24T12:16:50;11.90;99.90
39067;DHT22;24821;51.988;6.020;2023-04-24T12:19:21;11.80;99.90
39067;DHT22;24821;51.988;6.020;2023-04-24T12:21:59;11.70;99.90
39067;DHT22;24821;51.988;6.020;2023-04-24T12:24:25;11.60;99.90
39067;DHT22;24821;51.988;6.020;2023-04-24T12:26:51;11.60;99.90
39067;DHT22;24821;51.988;6.020;2023-04-24T12:29:20;11.80;99.90
39067;DHT22;24821;51.988;6.020;2023-04-24T12:31:46;12.00;99.90
39067;DHT22;24821;51.988;6.020;2023-04-24T12:34:22;12.20;99.90
39067;DHT22;24821;51.988;6.020;2023-04-24T12:36:48;12.50;99.90
39067;DHT22;24821;51.988;6.020;2023-04-24T12:39:18;12.50;99.90
39067;DHT22;24821;51.988;6.020;2023-04-24T12:41:57;12.60;99.90
39067;DHT22;24821;51.988;6.020;2023-04-24T12:44:35;12.80;99.90
39067;DHT22;24821;51.988;6.020;2023-04-24T12:47:02;12.90;99.90
39067;DHT22;24821;51.988;6.020;2023-04-24T12:49:30;13.00;99.90
39067;DHT22;24821;51.988;6.020;2023-04-24T12:51:56;13.10;99.90
39067;DHT22;24821;51.988;6.020;2023-04-24T12:54:22;13.10;99.90
39067;DHT22;24821;51.988;6.020;2023-04-24T12:56:47;13.10;99.90
39067;DHT22;24821;51.988;6.020;2023-04-24T12:59:13;13.00;99.90
39067;DHT22;24821;51.988;6.020;2023-04-24T13:01:38;12.80;99.90
39067;DHT22;24821;51.988;6.020;2023-04-24T13:04:05;12.80;99.90
39067;DHT22;24821;51.988;6.020;2023-04-24T13:06:30;12.70;99.90
39067;DHT22;24821;51.988;6.020;2023-04-24T13:08:57;12.70;99.90
39067;DHT22;24821;51.988;6.020;2023-04-24T13:11:23;12.60;99.90
39067;DHT22;24821;51.988;6.020;2023-04-24T13:13:49;12.60;99.90
39067;DHT22;24821;51.988;6.020;2023-04-24T13:16:15;12.70;99.90
39067;DHT22;24821;51.988;6.020;2023-04-24T13:18:40;12.90;99.90
39067;DHT22;24821;51.988;6.020;2023-04-24T13:21:06;13.00;99.90
39067;DHT22;24821;51.988;6.020;2023-04-24T13:23:32;13.10;99.90
39067;DHT22;24821;51.988;6.020;2023-04-24T13:25:59;13.10;99.90
39067;DHT22;24821;51.988;6.020;2023-04-24T13:28:28;12.90;99.90
39067;DHT22;24821;51.988;6.020;2023-04-24T13:30:55;12.80;99.90
39067;DHT22;24821;51.988;6.020;2023-04-24T13:33:20;12.80;99.90
39067;DHT22;24821;51.988;6.020;2023-04-24T13:35:53;12.60;99.90
39067;DHT22;24821;51.988;6.020;2023-04-24T13:38:19;12.50;99.90
39067;DHT22;24821;51.988;6.020;2023-04-24T13:40:48;12.30;99.90
39067;DHT22;24821;51.988;6.020;2023-04-24T13:43:13;12.10;99.90
39067;DHT22;24821;51.988;6.020;2023-04-24T13:45:39;12.00;99.90
39067;DHT22;24821;51.988;6.020;2023-04-24T13:48:04;11.90;99.90
39067;DHT22;24821;51.988;6.020;2023-04-24T13:50:30;11.80;99.90
39067;DHT22;24821;51.988;6.020;2023-04-24T13:52:56;11.80;99.90
39067;DHT22;24821;51.988;6.020;2023-04-24T13:55:22;11.90;99.90
39067;DHT22;24821;51.988;6.020;2023-04-24T13:57:47;11.90;99.90
39067;DHT22;24821;51.988;6.020;2023-04-24T14:00:13;11.90;99.90
39067;DHT22;24821;51.988;6.020;2023-04-24T14:02:39;11.80;99.90
39067;DHT22;24821;51.988;6.020;2023-04-24T14:05:05;11.80;99.90
39067;DHT22;24821;51.988;6.020;2023-04-24T14:07:31;11.90;99.90
39067;DHT22;24821;51.988;6.020;2023-04-24T14:09:57;11.80;99.90
39067;DHT22;24821;51.988;6.020;2023-04-24T14:12:22;11.90;99.90
39067;DHT22;24821;51.988;6.020;2023-04-24T14:14:48;12.10;99.90
39067;DHT22;24821;51.988;6.020;2023-04-24T14:17:14;12.40;99.90
39067;DHT22;24821;51.988;6.020;2023-04-24T14:19:40;12.60;99.90
39067;DHT22;24821;51.988;6.020;2023-04-24T14:22:05;12.80;99.90
39067;DHT22;24821;51.988;6.020;2023-04-24T14:24:31;12.90;99.90
39067;DHT22;24821;51.988;6.020;2023-04-24T14:26:57;12.90;99.90
39067;DHT22;24821;51.988;6.020;2023-04-24T14:29:22;13.00;99.90
39067;DHT22;24821;51.988;6.020;2023-04-24T14:31:48;12.90;99.40
39067;DHT22;24821;51.988;6.020;2023-04-24T14:34:14;13.00;99.30
39067;DHT22;24821;51.988;6.020;2023-04-24T14:36:40;13.10;99.00
39067;DHT22;24821;51.988;6.020;2023-04-24T14:39:06;13.20;99.10
39067;DHT22;24821;51.988;6.020;2023-04-24T14:41:32;13.30;99.20
39067;DHT22;24821;51.988;6.020;2023-04-24T14:44:01;13.40;98.80
39067;DHT22;24821;51.988;6.020;2023-04-24T14:46:28;13.30;98.10
39067;DHT22;24821;51.988;6.020;2023-04-24T14:48:56;13.20;97.80
39067;DHT22;24821;51.988;6.020;2023-04-24T14:51:21;13.00;97.50
39067;DHT22;24821;51.988;6.020;2023-04-24T14:53:47;12.90;97.30
39067;DHT22;24821;51.988;6.020;2023-04-24T14:56:13;12.80;97.40
39067;DHT22;24821;51.988;6.020;2023-04-24T14:58:39;12.70;97.90
39067;DHT22;24821;51.988;6.020;2023-04-24T15:01:04;12.60;97.80
39067;DHT22;24821;51.988;6.020;2023-04-24T15:03:30;12.60;97.60
39067;DHT22;24821;51.988;6.020;2023-04-24T15:05:56;12.60;96.90
39067;DHT22;24821;51.988;6.020;2023-04-24T15:08:21;12.60;96.90
39067;DHT22;24821;51.988;6.020;2023-04-24T15:10:47;12.70;97.10
39067;DHT22;24821;51.988;6.020;2023-04-24T15:13:13;12.70;96.40
39067;DHT22;24821;51.988;6.020;2023-04-24T15:15:39;12.80;96.40
39067;DHT22;24821;51.988;6.020;2023-04-24T15:18:05;12.80;96.10
39067;DHT22;24821;51.988;6.020;2023-04-24T15:20:31;12.70;96.20
39067;DHT22;24821;51.988;6.020;2023-04-24T15:22:57;12.80;96.60
39067;DHT22;24821;51.988;6.020;2023-04-24T15:25:24;12.80;96.30
39067;DHT22;24821;51.988;6.020;2023-04-24T15:27:50;12.80;96.80
39067;DHT22;24821;51.988;6.020;2023-04-24T15:30:15;12.80;97.00
39067;DHT22;24821;51.988;6.020;2023-04-24T15:32:41;12.70;96.50
39067;DHT22;24821;51.988;6.020;2023-04-24T15:35:07;12.60;96.50
39067;DHT22;24821;51.988;6.020;2023-04-24T15:37:33;12.60;96.70
39067;DHT22;24821;51.988;6.020;2023-04-24T15:39:59;12.60;96.90
39067;DHT22;24821;51.988;6.020;2023-04-24T15:42:25;12.60;96.80